Time;durP1;ratioP1;P1;durP2;ratioP2;P2;SDS_P1;SDS_P2;PMS_P1;PMS_P2;Temp;Humidity;BMP_temperature;BMP_pressure;BME280_temperature;BME280_humidity;BME280_pressure;Samples;Min_cycle;Max_cycle;Signal;HPM_P1;HPM_P2
2022/11/24 00:01:25;;;;;;;17.67;8.97;;;;;;;4.28;96.82;99637.16;4952512;28;20688;-64
2022/11/24 00:03:59;;;;;;;17.87;9.37;;;;;;;4.36;96.54;99630.38;4952655;28;20293;-63
2022/11/24 00:06:27;;;;;;;18.00;9.30;;;;;;;4.35;96.71;99641.69;4952088;28;20229;-63
2022/11/24 00:08:54;;;;;;;13.70;7.70;;;;;;;4.31;96.61;99638.97;4953150;28;20230;-63
2022/11/24 00:11:23;;;;;;;14.17;7.20;;;;;;;4.17;96.01;99646.47;4952300;28;20253;-63
2022/11/24 00:13:49;;;;;;;14.87;8.37;;;;;;;4.07;96.11;99645.34;4951981;28;20305;-63
2022/11/24 00:16:19;;;;;;;13.20;7.97;;;;;;;4.19;96.25;99647.41;4945246;28;20582;-63
2022/11/24 00:18:48;;;;;;;13.07;7.57;;;;;;;4.04;95.85;99639.16;4951864;28;20586;-63
2022/11/24 00:21:16;;;;;;;15.97;6.97;;;;;;;3.89;95.63;99650.06;4953476;28;20899;-63
2022/11/24 00:23:43;;;;;;;14.70;7.50;;;;;;;3.74;95.39;99653.16;4952508;28;20307;-63
2022/11/24 00:26:12;;;;;;;11.77;7.00;;;;;;;3.64;95.60;99658.97;4951291;28;20226;-63
2022/11/24 00:28:40;;;;;;;14.37;8.00;;;;;;;3.70;95.81;99656.53;4953025;28;20226;-63
2022/11/24 00:31:16;;;;;;;12.10;7.57;;;;;;;3.65;96.07;99659.84;4952962;28;20264;-63
2022/11/24 00:33:45;;;;;;;19.80;7.77;;;;;;;3.59;95.96;99662.28;4950958;28;20727;-64
2022/11/24 00:36:12;;;;;;;12.03;7.10;;;;;;;3.54;95.92;99663.88;4951327;28;20639;-64
2022/11/24 00:38:38;;;;;;;16.50;8.30;;;;;;;3.51;95.92;99676.88;4952081;28;20361;-63
2022/11/24 00:41:05;;;;;;;13.07;7.53;;;;;;;3.53;96.34;99677.81;4953131;28;20253;-63
2022/11/24 00:43:32;;;;;;;14.00;7.40;;;;;;;3.69;96.87;99687.91;4950461;28;20222;-63
2022/11/24 00:45:58;;;;;;;12.70;7.30;;;;;;;3.81;96.97;99692.59;4951203;28;20226;-63
2022/11/24 00:48:25;;;;;;;12.93;7.60;;;;;;;3.94;97.08;99684.25;4953181;28;20690;-63
2022/11/24 00:51:00;;;;;;;15.07;7.97;;;;;;;4.14;97.20;99690.06;4950275;28;20232;-63
2022/11/24 00:53:27;;;;;;;13.73;7.90;;;;;;;4.20;97.18;99684.97;4952239;28;20731;-63
2022/11/24 00:55:54;;;;;;;12.80;8.10;;;;;;;4.12;97.05;99689.13;4951537;28;20240;-63
2022/11/24 00:58:22;;;;;;;15.57;7.57;;;;;;;4.00;96.55;99682.72;4940124;29;20250;-64
2022/11/24 01:00:50;;;;;;;11.00;7.70;;;;;;;3.89;96.38;99688.47;4951325;28;20290;-64
2022/11/24 01:03:18;;;;;;;16.40;7.63;;;;;;;3.84;96.13;99709.28;4952137;28;20229;-63
2022/11/24 01:05:45;;;;;;;16.27;8.60;;;;;;;3.94;96.55;99698.22;4951099;28;20245;-64
2022/11/24 01:08:11;;;;;;;18.00;8.40;;;;;;;3.93;96.48;99706.03;4950415;28;20249;-63
2022/11/24 01:10:38;;;;;;;14.37;8.30;;;;;;;3.98;96.60;99704.44;4951758;28;20662;-63
2022/11/24 01:13:05;;;;;;;17.63;8.13;;;;;;;4.10;96.64;99707.44;4952651;28;20497;-61
2022/11/24 01:15:34;;;;;;;22.30;8.67;;;;;;;4.12;96.51;99713.59;4946748;28;20293;-63
2022/11/24 01:18:01;;;;;;;20.97;11.23;;;;;;;4.14;96.31;99708.41;4950324;28;20202;-64
2022/11/24 01:20:27;;;;;;;21.87;11.33;;;;;;;4.15;96.46;99718.03;4950805;28;20280;-63
2022/11/24 01:22:53;;;;;;;25.77;12.87;;;;;;;4.25;96.38;99723.56;4951977;28;20665;-63
2022/11/24 01:25:20;;;;;;;24.50;11.80;;;;;;;4.30;96.54;99734.16;4951019;28;20224;-63
2022/11/24 01:27:46;;;;;;;17.83;9.60;;;;;;;4.19;96.43;99727.75;4949953;28;20656;-63
2022/11/24 01:30:13;;;;;;;18.23;8.13;;;;;;;4.03;95.83;99729.06;4951477;28;20531;-63
2022/11/24 01:32:39;;;;;;;19.93;9.17;;;;;;;3.69;95.60;99708.84;4951166;28;20225;-64
2022/11/24 01:35:06;;;;;;;16.60;8.30;;;;;;;3.66;95.37;99733.22;4950732;28;20237;-63
2022/11/24 01:37:33;;;;;;;17.67;8.33;;;;;;;3.57;95.79;99735.53;4950262;28;20225;-63
2022/11/24 01:39:59;;;;;;;12.27;7.40;;;;;;;3.52;96.03;99742.34;4950838;28;20677;-64
2022/11/24 01:42:36;;;;;;;14.27;8.20;;;;;;;3.61;96.43;99741.78;4951476;28;20242;-63
2022/11/24 01:45:41;;;;;;;17.30;7.43;;;;;;;3.77;96.63;99738.75;4950709;28;20334;-62
2022/11/24 01:48:37;;;;;;;13.67;7.87;;;;;;;3.93;96.86;99743.59;4888878;29;20204;-64
2022/11/24 01:51:11;;;;;;;14.97;7.30;;;;;;;4.10;96.88;99746.72;4885372;29;20243;-64
2022/11/24 01:53:42;;;;;;;15.13;7.70;;;;;;;4.14;96.88;99743.34;4934555;28;20230;-64
2022/11/24 01:56:11;;;;;;;14.17;7.30;;;;;;;4.16;96.96;99760.00;4949929;28;20237;-63
2022/11/24 01:58:39;;;;;;;13.50;7.13;;;;;;;4.16;96.63;99749.50;4950726;28;20792;-63
2022/11/24 02:01:07;;;;;;;18.20;8.00;;;;;;;4.13;96.65;99748.53;4949500;28;20254;-64
2022/11/24 02:03:38;;;;;;;17.23;9.33;;;;;;;4.13;96.72;99748.53;4951016;28;20482;-63
2022/11/24 02:06:20;;;;;;;17.50;8.13;;;;;;;4.08;96.60;99749.31;4949274;28;20302;-63
2022/11/24 02:08:59;;;;;;;19.20;8.37;;;;;;;4.16;96.91;99740.78;4951050;28;20277;-63
2022/11/24 02:11:32;;;;;;;17.80;9.50;;;;;;;4.16;96.79;99749.50;4948199;28;20773;-61
2022/11/24 02:13:59;;;;;;;14.10;9.03;;;;;;;4.05;96.41;99757.06;4950588;28;20745;-64
2022/11/24 02:16:26;;;;;;;16.57;8.63;;;;;;;3.93;96.06;99756.69;4946492;28;20300;-63
2022/11/24 02:18:52;;;;;;;14.47;8.37;;;;;;;3.80;95.88;99751.94;4950741;28;20309;-63
2022/11/24 02:21:19;;;;;;;18.50;8.13;;;;;;;3.67;96.26;99744.56;4951449;28;20702;-63
2022/11/24 02:23:45;;;;;;;19.63;9.27;;;;;;;3.81;96.32;99748.47;4949513;28;20293;-62
2022/11/24 02:26:43;;;;;;;20.00;8.53;;;;;;;3.81;96.51;99750.22;4938831;28;20309;-64
2022/11/24 02:29:11;;;;;;;16.00;8.20;;;;;;;3.87;96.62;99751.28;4949597;28;20289;-63
2022/11/24 02:31:43;;;;;;;19.60;8.57;;;;;;;3.89;96.84;99731.25;4970761;23;20270;-69
2022/11/24 02:34:09;;;;;;;13.97;8.47;;;;;;;3.89;96.39;99746.09;4965337;28;20237;-67
2022/11/24 02:36:36;;;;;;;18.67;7.13;;;;;;;3.89;96.78;99751.31;4966261;28;20471;-66
2022/11/24 02:39:04;;;;;;;18.67;8.77;;;;;;;4.09;96.15;99755.44;4969275;28;20308;-68
2022/11/24 02:41:30;;;;;;;15.57;7.53;;;;;;;4.09;95.11;99766.81;4970179;28;20308;-67
2022/11/24 02:44:01;;;;;;;15.77;7.77;;;;;;;3.90;95.20;99755.72;4944476;28;20289;-68
2022/11/24 02:46:27;;;;;;;15.47;7.20;;;;;;;3.82;95.18;99763.34;4964008;28;20301;-68
2022/11/24 02:48:53;;;;;;;17.70;7.40;;;;;;;3.59;95.16;99752.16;4962150;28;20677;-69
2022/11/24 02:51:20;;;;;;;16.57;6.83;;;;;;;3.40;95.01;99763.81;4970163;28;20705;-66
2022/11/24 02:53:46;;;;;;;16.33;6.47;;;;;;;3.34;95.71;99760.13;4969545;28;20229;-65
2022/11/24 02:56:13;;;;;;;12.13;6.87;;;;;;;3.33;95.80;99769.69;4968521;28;20745;-66
2022/11/24 02:58:39;;;;;;;13.10;6.40;;;;;;;3.18;95.51;99769.19;4959572;28;20314;-67
2022/11/24 03:01:06;;;;;;;10.87;6.80;;;;;;;3.30;96.11;99779.19;4962630;28;20221;-64
2022/11/24 03:03:32;;;;;;;13.70;6.40;;;;;;;3.46;96.47;99779.69;4968963;28;20197;-66
2022/11/24 03:05:59;;;;;;;11.27;6.27;;;;;;;3.54;96.56;99779.94;4970154;28;20292;-65
2022/11/24 03:08:25;;;;;;;14.30;6.53;;;;;;;3.77;97.03;99773.69;4974332;28;20205;-66
2022/11/24 03:10:51;;;;;;;13.00;6.17;;;;;;;3.87;97.15;99766.09;4973017;28;20209;-66
2022/11/24 03:13:18;;;;;;;12.47;6.73;;;;;;;4.01;96.98;99778.78;4971833;28;20225;-69
2022/11/24 03:15:44;;;;;;;13.83;6.73;;;;;;;3.87;96.84;99776.59;4970060;28;20281;-67
2022/11/24 03:18:11;;;;;;;12.87;6.00;;;;;;;3.71;96.23;99775.25;4973649;28;20229;-66
2022/11/24 03:20:37;;;;;;;10.83;6.30;;;;;;;3.65;96.53;99772.44;4971802;28;20272;-66
2022/11/24 03:23:04;;;;;;;15.77;6.63;;;;;;;3.58;96.16;99762.59;4971357;28;20249;-66
2022/11/24 03:25:30;;;;;;;18.33;6.40;;;;;;;3.44;96.22;99749.97;4972240;28;20260;-66
2022/11/24 03:27:59;;;;;;;12.20;6.47;;;;;;;3.33;95.99;99758.34;4972564;28;20697;-67
2022/11/24 03:30:25;;;;;;;14.57;6.40;;;;;;;3.23;95.99;99751.03;4955554;28;20281;-67
2022/11/24 03:32:52;;;;;;;15.83;6.10;;;;;;;3.20;96.10;99764.00;4973091;28;20261;-67
2022/11/24 03:35:20;;;;;;;14.23;6.10;;;;;;;3.19;96.29;99770.06;4972842;28;20229;-67
2022/11/24 03:37:46;;;;;;;9.23;6.10;;;;;;;3.31;96.84;99766.13;4972154;28;20252;-68
2022/11/24 03:40:13;;;;;;;14.70;6.73;;;;;;;3.46;97.35;99761.38;4962347;28;20364;-67
2022/11/24 03:42:40;;;;;;;9.37;5.73;;;;;;;3.62;97.47;99768.00;4972594;28;20760;-67
2022/11/24 03:45:07;;;;;;;11.07;5.83;;;;;;;3.76;97.47;99757.94;4972405;28;20202;-67
2022/11/24 03:47:53;;;;;;;13.07;6.50;;;;;;;3.98;97.85;99764.69;4970639;28;20205;-67
2022/11/24 03:50:19;;;;;;;13.87;6.47;;;;;;;4.14;98.11;99771.28;4970591;28;20308;-67
2022/11/24 03:52:46;;;;;;;12.97;6.47;;;;;;;4.29;97.84;99758.59;4970984;28;20278;-67
2022/11/24 03:55:12;;;;;;;11.73;6.23;;;;;;;4.42;98.06;99747.63;4967831;28;20289;-67
2022/11/24 03:57:38;;;;;;;15.73;6.20;;;;;;;4.47;97.82;99767.00;4967374;28;20289;-67
2022/11/24 04:00:05;;;;;;;14.00;7.00;;;;;;;4.59;97.77;99759.47;4972320;28;20268;-67
2022/11/24 04:02:32;;;;;;;11.77;6.57;;;;;;;4.73;97.56;99776.44;4966643;28;20245;-67
2022/11/24 04:04:58;;;;;;;13.57;6.47;;;;;;;4.84;97.27;99775.84;4971467;28;20209;-67
2022/11/24 04:07:25;;;;;;;11.70;5.50;;;;;;;4.84;97.45;99779.38;4972216;28;20278;-66
2022/11/24 04:09:51;;;;;;;15.03;6.13;;;;;;;4.99;97.21;99782.38;4963919;28;20433;-67
2022/11/24 04:15:03;;;;;;;13.83;5.53;;;;;;;4.95;97.58;99763.91;4967390;28;20309;-66
2022/11/24 04:17:29;;;;;;;17.83;5.80;;;;;;;5.10;97.57;99782.63;4968422;28;20494;-67
2022/11/24 04:19:55;;;;;;;15.17;5.67;;;;;;;5.09;97.42;99785.22;4972154;28;20655;-68
2022/11/24 04:22:22;;;;;;;15.17;5.93;;;;;;;5.12;97.66;99788.81;4949723;28;20637;-67
2022/11/24 04:24:48;;;;;;;13.67;6.27;;;;;;;5.16;97.70;99777.53;4966420;28;20344;-67
2022/11/24 04:27:14;;;;;;;11.63;5.47;;;;;;;5.25;97.63;99772.53;4965625;28;20228;-67
2022/11/24 04:29:41;;;;;;;16.13;7.20;;;;;;;5.25;97.71;99776.91;4973041;28;20218;-67
2022/11/24 04:32:07;;;;;;;19.13;7.50;;;;;;;5.34;97.51;99775.38;4971709;28;20308;-67
2022/11/24 04:34:34;;;;;;;22.73;7.50;;;;;;;5.43;97.60;99779.97;4955461;28;20237;-67
2022/11/24 04:37:01;;;;;;;22.67;6.93;;;;;;;5.46;97.60;99787.03;4954879;28;20202;-67
2022/11/24 04:39:28;;;;;;;15.83;6.00;;;;;;;5.52;97.55;99790.69;4966431;28;21660;-67
2022/11/24 04:41:54;;;;;;;15.43;6.43;;;;;;;5.59;97.60;99789.97;4961274;28;20652;-67
2022/11/24 04:44:21;;;;;;;17.47;6.53;;;;;;;5.65;97.43;99792.78;4969609;28;20707;-67
2022/11/24 04:46:47;;;;;;;13.30;6.33;;;;;;;5.72;97.89;99793.78;4967102;28;20305;-69
2022/11/24 04:49:13;;;;;;;18.80;6.60;;;;;;;5.76;97.67;99797.38;4963590;28;20196;-67
2022/11/24 04:51:40;;;;;;;17.17;6.07;;;;;;;5.73;97.70;99789.44;4967462;28;20660;-66
2022/11/24 04:54:10;;;;;;;14.57;6.63;;;;;;;5.80;97.82;99802.72;4963535;28;20291;-67
2022/11/24 04:56:36;;;;;;;18.27;6.20;;;;;;;5.84;97.68;99796.69;4970918;28;20222;-67
2022/11/24 04:59:03;;;;;;;19.77;6.60;;;;;;;5.86;97.83;99805.50;4971447;28;20363;-67
2022/11/24 05:01:33;;;;;;;11.70;5.83;;;;;;;5.92;97.77;99802.16;4967781;28;20221;-67
2022/11/24 05:04:00;;;;;;;19.77;5.83;;;;;;;5.97;97.80;99811.00;4963807;28;20294;-68
2022/11/24 05:06:26;;;;;;;16.03;6.10;;;;;;;6.06;97.26;99808.63;4970904;28;20194;-67
2022/11/24 05:08:53;;;;;;;17.50;5.97;;;;;;;6.09;97.50;99813.06;4970299;28;20585;-67
2022/11/24 05:11:19;;;;;;;10.73;5.50;;;;;;;6.05;97.52;99814.72;4970580;28;20250;-68
2022/11/24 05:13:45;;;;;;;16.37;5.73;;;;;;;6.11;97.22;99819.22;4968581;28;20240;-67
2022/11/24 05:16:12;;;;;;;17.37;5.77;;;;;;;6.17;97.16;99821.97;4966639;28;20291;-67
2022/11/24 05:18:38;;;;;;;15.37;5.30;;;;;;;6.23;97.54;99824.75;4960642;28;20287;-68
2022/11/24 05:21:08;;;;;;;19.83;5.33;;;;;;;6.25;97.43;99830.91;4969124;28;20221;-68
2022/11/24 05:23:34;;;;;;;16.60;5.63;;;;;;;6.33;97.05;99838.97;4970690;28;20208;-68
2022/11/24 05:26:01;;;;;;;19.00;5.70;;;;;;;6.32;97.08;99824.03;4970556;28;20235;-68
2022/11/24 05:28:28;;;;;;;15.43;5.27;;;;;;;6.37;97.02;99835.53;4968770;28;20295;-68
2022/11/24 05:30:58;;;;;;;18.43;5.57;;;;;;;6.50;96.81;99841.13;4965877;28;20249;-68
2022/11/24 05:33:27;;;;;;;16.90;5.10;;;;;;;6.49;96.65;99839.34;4960956;28;20199;-68
2022/11/24 05:35:53;;;;;;;13.93;5.23;;;;;;;6.52;96.97;99849.94;4959169;28;20674;-68
2022/11/24 05:38:21;;;;;;;15.47;4.87;;;;;;;6.52;96.89;99852.56;4962950;28;20300;-69
2022/11/24 05:40:47;;;;;;;14.53;4.57;;;;;;;6.53;97.03;99849.06;4965751;28;20244;-68
2022/11/24 05:43:15;;;;;;;19.87;5.30;;;;;;;6.53;97.10;99849.06;4970923;28;20344;-67
2022/11/24 05:45:43;;;;;;;21.27;5.93;;;;;;;6.58;97.16;99862.31;4966665;28;20297;-68
2022/11/24 05:48:12;;;;;;;18.50;5.47;;;;;;;6.56;97.20;99853.50;4961339;28;20261;-68
2022/11/24 05:50:39;;;;;;;13.60;5.30;;;;;;;6.68;97.04;99864.28;4969375;28;20324;-67
2022/11/24 05:53:08;;;;;;;15.63;5.63;;;;;;;6.69;97.08;99858.16;4964618;28;20248;-68
2022/11/24 05:55:35;;;;;;;16.07;4.97;;;;;;;6.75;97.18;99853.00;4954473;28;20202;-68
2022/11/24 05:58:04;;;;;;;17.20;5.30;;;;;;;6.76;97.21;99854.78;4962426;28;20295;-68
2022/11/24 06:00:32;;;;;;;15.30;5.07;;;;;;;6.82;97.17;99854.94;4963201;28;20663;-68
2022/11/24 06:02:59;;;;;;;15.77;5.43;;;;;;;6.93;96.45;99856.88;4963693;28;20292;-69
2022/11/24 06:05:27;;;;;;;20.90;5.57;;;;;;;6.90;96.48;99858.59;4965781;28;20198;-69
2022/11/24 06:07:54;;;;;;;16.63;5.43;;;;;;;6.87;96.93;99862.91;4970028;28;20479;-68
2022/11/24 06:10:22;;;;;;;17.10;5.30;;;;;;;6.87;97.14;99865.53;4970771;28;20221;-68
2022/11/24 06:12:49;;;;;;;15.90;5.53;;;;;;;6.85;96.98;99860.25;4965448;28;20225;-69
2022/11/24 06:15:16;;;;;;;16.53;5.80;;;;;;;6.89;97.16;99856.81;4968929;28;20260;-70
2022/11/24 06:17:42;;;;;;;17.27;6.60;;;;;;;6.95;96.78;99857.78;4966681;28;20668;-68
2022/11/24 06:20:10;;;;;;;16.57;6.07;;;;;;;6.98;96.72;99860.47;4960526;28;20500;-68
2022/11/24 06:22:37;;;;;;;17.10;5.67;;;;;;;6.97;97.01;99867.50;4965993;28;20244;-69
2022/11/24 06:25:03;;;;;;;17.93;6.00;;;;;;;7.07;96.28;99873.81;4969920;28;20728;-67
2022/11/24 06:27:30;;;;;;;12.13;5.47;;;;;;;7.00;96.79;99872.81;4970170;28;20232;-69
2022/11/24 06:29:56;;;;;;;16.97;5.73;;;;;;;6.95;96.63;99868.31;4965156;28;20221;-70
2022/11/24 06:32:23;;;;;;;12.87;5.57;;;;;;;6.91;96.42;99863.00;4963031;28;20279;-71
2022/11/24 06:34:49;;;;;;;16.20;5.53;;;;;;;6.92;96.90;99866.53;4965559;28;20289;-69
2022/11/24 06:37:15;;;;;;;22.20;5.97;;;;;;;6.99;96.69;99875.41;4967576;28;20215;-69
2022/11/24 06:39:42;;;;;;;13.83;5.13;;;;;;;7.11;96.03;99880.91;4967027;28;20224;-68
2022/11/24 06:42:08;;;;;;;11.47;4.87;;;;;;;7.06;95.73;99877.31;4971280;28;20223;-68
2022/11/24 06:44:34;;;;;;;15.77;5.60;;;;;;;6.96;96.31;99875.34;4970744;28;20280;-67
2022/11/24 06:47:01;;;;;;;17.83;5.40;;;;;;;6.94;96.27;99877.06;4970892;28;20193;-67
2022/11/24 06:49:28;;;;;;;16.80;5.33;;;;;;;6.93;96.61;99880.56;4967798;28;20238;-67
2022/11/24 06:51:54;;;;;;;20.73;6.40;;;;;;;7.01;96.14;99885.13;4970510;28;20304;-67
2022/11/24 06:54:21;;;;;;;17.17;6.90;;;;;;;7.14;95.01;99888.88;4971088;28;20688;-67
2022/11/24 06:56:47;;;;;;;15.47;6.87;;;;;;;7.05;95.80;99900.09;4969854;28;20572;-67
2022/11/24 06:59:19;;;;;;;14.13;6.93;;;;;;;7.20;94.16;99903.06;4969165;28;20226;-66
2022/11/24 07:01:45;;;;;;;17.40;6.00;;;;;;;7.12;94.40;99916.91;4972003;28;20729;-67
2022/11/24 07:04:12;;;;;;;18.90;6.33;;;;;;;7.00;95.53;99912.31;4972238;28;20249;-66
2022/11/24 07:06:40;;;;;;;15.33;6.00;;;;;;;7.00;95.57;99914.94;4975797;28;20263;-67
2022/11/24 07:09:11;;;;;;;19.90;5.97;;;;;;;7.00;95.59;99914.03;4964246;28;20553;-65
2022/11/24 07:11:38;;;;;;;15.87;5.93;;;;;;;7.15;94.08;99923.13;4968168;28;20305;-65
2022/11/24 07:14:05;;;;;;;19.17;6.50;;;;;;;7.05;94.88;99925.56;4971299;28;20749;-67
2022/11/24 07:16:32;;;;;;;15.97;6.30;;;;;;;7.04;94.90;99926.41;4967767;28;20223;-67
2022/11/24 07:18:58;;;;;;;16.07;6.00;;;;;;;6.99;95.09;99931.59;4972779;28;20198;-65
2022/11/24 07:21:26;;;;;;;17.57;6.20;;;;;;;6.93;95.26;99927.94;4973026;28;20253;-67
2022/11/24 07:23:55;;;;;;;14.77;6.63;;;;;;;6.93;95.81;99930.56;4970683;28;20285;-67
2022/11/24 07:26:22;;;;;;;15.83;5.97;;;;;;;6.91;95.75;99935.81;4966463;28;20233;-67
2022/11/24 07:28:49;;;;;;;18.93;6.60;;;;;;;7.10;95.01;99942.31;4955681;28;20226;-67
2022/11/24 07:31:19;;;;;;;15.03;6.80;;;;;;;7.10;94.96;99948.47;4973396;28;20249;-66
2022/11/24 07:33:53;;;;;;;14.13;6.40;;;;;;;7.14;94.83;99944.16;4988909;28;22334;-67
2022/11/24 07:36:21;;;;;;;16.33;6.77;;;;;;;7.18;94.78;99952.16;4989079;28;20204;-67
2022/11/24 07:38:48;;;;;;;14.67;6.40;;;;;;;7.09;95.10;99949.34;4973509;28;20212;-68
2022/11/24 07:41:16;;;;;;;17.20;6.93;;;;;;;7.04;94.95;99951.00;4988997;28;20229;-68
2022/11/24 07:43:43;;;;;;;16.47;5.70;;;;;;;6.95;95.11;99958.72;4987959;28;20588;-69
2022/11/24 07:46:12;;;;;;;16.50;6.40;;;;;;;6.98;95.47;99961.41;4986794;28;20544;-68
2022/11/24 07:48:39;;;;;;;15.13;6.60;;;;;;;7.00;95.82;99977.22;4988246;28;20201;-69
2022/11/24 07:51:07;;;;;;;13.40;6.87;;;;;;;7.16;95.13;99976.66;4989038;28;20235;-70
2022/11/24 07:53:34;;;;;;;16.10;6.07;;;;;;;7.07;95.28;99963.31;4987352;28;20205;-67
2022/11/24 07:56:03;;;;;;;15.27;5.77;;;;;;;7.37;93.94;99981.50;4987064;28;20200;-67
2022/11/24 07:58:32;;;;;;;17.80;6.43;;;;;;;7.34;94.58;99979.69;4985970;28;20450;-67
2022/11/24 08:00:59;;;;;;;16.40;5.40;;;;;;;7.29;94.57;99985.72;4982459;28;20884;-68
2022/11/24 08:03:26;;;;;;;17.43;6.10;;;;;;;7.24;94.85;99988.28;4985677;28;21518;-68
2022/11/24 08:05:57;;;;;;;23.27;7.00;;;;;;;7.17;95.14;99981.97;4987788;28;20719;-66
2022/11/24 08:08:44;;;;;;;16.33;6.67;;;;;;;7.32;95.16;99999.84;4988771;28;20221;-66
2022/11/24 08:11:15;;;;;;;14.97;7.03;;;;;;;7.44;95.29;99994.81;4990415;28;20295;-68
2022/11/24 08:13:43;;;;;;;15.67;6.60;;;;;;;7.52;95.44;100001.09;4987836;28;20206;-68
2022/11/24 08:16:12;;;;;;;13.90;6.23;;;;;;;7.61;95.18;100007.44;4991006;28;20202;-68
2022/11/24 08:18:38;;;;;;;21.73;7.00;;;;;;;7.73;95.28;100019.09;4989024;28;20200;-68
2022/11/24 08:21:06;;;;;;;16.50;6.83;;;;;;;7.85;95.26;100023.69;4987802;28;20303;-69
2022/11/24 08:23:33;;;;;;;26.90;8.20;;;;;;;7.97;95.17;100021.28;4990990;28;20239;-66
2022/11/24 08:26:08;;;;;;;15.10;7.07;;;;;;;7.98;95.09;100014.25;4988689;28;20231;-67
2022/11/24 08:28:34;;;;;;;19.63;6.40;;;;;;;8.08;95.14;100025.00;4973741;28;20199;-67
2022/11/24 08:31:03;;;;;;;15.47;6.23;;;;;;;8.15;94.60;100018.97;4987580;28;20222;-67
2022/11/24 08:33:30;;;;;;;16.50;6.17;;;;;;;8.22;94.93;100021.72;5016608;23;20329;-64
2022/11/24 08:36:02;;;;;;;16.03;4.50;;;;;;;8.38;94.37;100021.13;4983542;28;20283;-62
2022/11/24 08:38:28;;;;;;;9.40;4.53;;;;;;;8.53;94.51;100026.66;4974116;28;20227;-63
2022/11/24 08:40:59;;;;;;;11.20;4.90;;;;;;;8.63;93.01;100020.66;4992313;28;20257;-65
2022/11/24 08:43:26;;;;;;;9.87;3.57;;;;;;;8.89;92.22;100038.63;4991698;28;20364;-66
2022/11/24 08:45:52;;;;;;;11.77;3.93;;;;;;;8.96;91.10;100037.84;4990992;28;20262;-64
2022/11/24 08:48:19;;;;;;;12.50;3.47;;;;;;;9.02;89.81;100041.47;4987682;28;20196;-63
2022/11/24 08:50:45;;;;;;;8.73;3.20;;;;;;;9.06;89.97;100051.22;4990442;28;20683;-63
2022/11/24 08:53:11;;;;;;;12.43;3.87;;;;;;;9.17;89.21;100043.41;4991874;28;20235;-63
2022/11/24 08:55:38;;;;;;;7.13;3.40;;;;;;;9.29;88.59;100040.97;4994609;28;20201;-64
2022/11/24 08:58:04;;;;;;;13.47;4.00;;;;;;;9.41;88.57;100049.03;4994782;28;20466;-61
2022/11/24 09:00:30;;;;;;;10.23;3.33;;;;;;;9.56;85.18;100058.91;4995619;28;20313;-65
2022/11/24 09:02:57;;;;;;;8.67;3.33;;;;;;;9.62;85.42;100047.53;4989660;28;20229;-62
2022/11/24 09:05:24;;;;;;;11.07;3.00;;;;;;;9.60;85.04;100051.88;4991937;28;20223;-63
2022/11/24 09:08:10;;;;;;;11.87;3.40;;;;;;;9.64;84.82;100057.25;4987591;28;20765;-64
2022/11/24 09:10:37;;;;;;;10.50;2.73;;;;;;;9.72;83.79;100052.06;4984259;28;20197;-61
2022/11/24 09:13:03;;;;;;;10.40;3.07;;;;;;;9.68;83.73;100052.88;4988731;28;20213;-63
2022/11/24 09:15:30;;;;;;;13.23;3.33;;;;;;;9.58;83.23;100054.50;4995795;28;20200;-62
2022/11/24 09:17:56;;;;;;;11.20;2.80;;;;;;;9.49;83.58;100064.09;4990914;28;20300;-63
2022/11/24 09:20:22;;;;;;;8.07;2.83;;;;;;;9.47;83.37;100069.38;4985416;28;20217;-64
2022/11/24 09:22:49;;;;;;;7.87;2.73;;;;;;;9.59;83.28;100065.97;4995495;28;20224;-64
2022/11/24 09:25:16;;;;;;;10.20;2.73;;;;;;;9.71;83.19;100069.69;4992736;28;20262;-62
2022/11/24 09:27:42;;;;;;;9.50;3.50;;;;;;;9.96;82.46;100065.53;4993653;28;20292;-63
2022/11/24 09:30:09;;;;;;;8.77;2.90;;;;;;;10.13;82.60;100065.72;4995913;28;20240;-63
2022/11/24 09:32:36;;;;;;;6.80;2.93;;;;;;;10.28;80.67;100070.28;4988465;28;20316;-63
2022/11/24 09:35:03;;;;;;;11.40;2.90;;;;;;;10.29;79.59;100072.94;4989971;28;20826;-63
2022/11/24 09:37:31;;;;;;;8.20;3.03;;;;;;;10.12;79.71;100071.88;4995888;28;20224;-63
2022/11/24 09:39:58;;;;;;;12.87;2.90;;;;;;;10.07;80.23;100073.59;4992547;28;20206;-62
2022/11/24 09:42:52;;;;;;;7.97;3.20;;;;;;;9.96;80.91;100093.75;4991460;28;20272;-65
2022/11/24 09:45:38;;;;;;;10.60;3.67;;;;;;;9.92;81.04;100094.56;4990530;28;21253;-64
2022/11/24 09:48:29;;;;;;;16.67;3.70;;;;;;;10.01;81.09;100098.22;4986992;28;20284;-63
2022/11/24 09:50:59;;;;;;;18.80;3.53;;;;;;;10.16;80.74;100097.50;4992678;28;20303;-63
2022/11/24 09:53:55;;;;;;;11.27;3.00;;;;;;;10.24;80.57;100108.19;4983831;28;20248;-62
2022/11/24 09:56:28;;;;;;;12.33;3.77;;;;;;;10.38;80.07;100110.97;4983760;28;20196;-65
2022/11/24 09:59:04;;;;;;;12.30;3.10;;;;;;;10.45;79.79;100110.16;4979113;28;20365;-63
2022/11/24 10:01:40;;;;;;;10.47;3.40;;;;;;;10.42;80.07;100102.22;4980315;28;20326;-64
2022/11/24 10:04:18;;;;;;;10.67;3.67;;;;;;;10.45;80.30;100116.34;4980945;28;20213;-64
2022/11/24 10:07:08;;;;;;;9.47;2.83;;;;;;;10.51;80.09;100113.75;4980150;28;20225;-64
2022/11/24 10:10:05;;;;;;;9.97;3.10;;;;;;;10.60;80.17;100115.59;4976598;28;20199;-63
2022/11/24 10:12:56;;;;;;;14.63;3.13;;;;;;;10.68;79.61;100112.13;4965809;28;20219;-64
2022/11/24 10:15:33;;;;;;;13.23;3.33;;;;;;;10.95;78.57;100111.47;4982845;28;20293;-65
2022/11/24 10:18:09;;;;;;;8.60;2.93;;;;;;;11.29;76.06;100117.91;4979084;28;20208;-63
2022/11/24 10:21:24;;;;;;;8.23;2.87;;;;;;;11.59;75.49;100125.09;4979487;28;20788;-63
2022/11/24 10:24:22;;;;;;;7.93;2.70;;;;;;;11.97;74.73;100127.06;4976797;28;20703;-65
2022/11/24 10:27:00;;;;;;;10.03;2.37;;;;;;;12.41;69.14;100123.69;4980794;28;20288;-66
2022/11/24 10:29:39;;;;;;;8.07;2.23;;;;;;;12.58;67.21;100124.56;4980862;28;20675;-66
2022/11/24 10:32:30;;;;;;;9.30;2.53;;;;;;;12.54;69.05;100120.13;4980493;28;20222;-66
2022/11/24 10:35:13;;;;;;;7.60;2.30;;;;;;;12.54;70.11;100120.13;4935430;28;20594;-64
2022/11/24 10:37:50;;;;;;;7.30;2.40;;;;;;;12.49;69.95;100114.81;4986085;28;20612;-65
2022/11/24 10:40:44;;;;;;;8.13;2.00;;;;;;;12.45;68.26;100118.38;4985848;28;20204;-66
2022/11/24 10:43:25;;;;;;;7.43;1.70;;;;;;;12.55;66.95;100117.47;4990683;28;20286;-63
2022/11/24 10:45:52;;;;;;;7.57;2.07;;;;;;;12.45;66.53;100125.44;4989180;28;20287;-67
2022/11/24 10:48:24;;;;;;;7.80;1.93;;;;;;;12.22;65.67;100118.31;4989673;28;20802;-63
2022/11/24 10:51:07;;;;;;;6.37;1.87;;;;;;;12.19;65.16;100128.94;4988402;28;20198;-65
2022/11/24 10:53:34;;;;;;;12.53;4.00;;;;;;;12.07;66.25;100131.56;4988932;28;20221;-63
2022/11/24 10:56:04;;;;;;;8.77;1.93;;;;;;;11.98;65.65;100134.16;4987324;28;20293;-63
2022/11/24 10:58:36;;;;;;;5.27;1.37;;;;;;;11.95;64.79;100135.91;4970361;28;20197;-64
2022/11/24 11:01:13;;;;;;;8.80;1.63;;;;;;;11.73;65.33;100146.41;4982400;28;20229;-62
2022/11/24 11:03:56;;;;;;;7.70;1.43;;;;;;;11.54;66.31;100145.41;4990350;28;20219;-64
2022/11/24 11:06:25;;;;;;;7.10;1.87;;;;;;;11.42;66.00;100147.13;4988704;28;20206;-67
2022/11/24 11:09:17;;;;;;;7.20;1.67;;;;;;;11.21;66.70;100150.53;4988055;28;20203;-68
2022/11/24 11:11:47;;;;;;;10.57;2.10;;;;;;;11.27;66.54;100147.94;4978390;28;20506;-63
2022/11/24 11:14:30;;;;;;;7.07;1.83;;;;;;;11.45;67.00;100148.03;4981912;28;20284;-63
2022/11/24 11:16:56;;;;;;;6.70;1.50;;;;;;;11.52;65.36;100148.94;4980064;28;20713;-66
2022/11/24 11:19:41;;;;;;;10.07;1.83;;;;;;;11.49;65.13;100155.13;4978872;28;20200;-64
2022/11/24 11:22:25;;;;;;;6.67;2.17;;;;;;;11.46;65.79;100155.09;4978295;28;20713;-65
2022/11/24 11:25:08;;;;;;;4.90;1.67;;;;;;;11.33;65.20;100161.22;4982559;28;20216;-66
2022/11/24 11:27:35;;;;;;;4.87;1.60;;;;;;;11.24;64.59;100170.00;4988062;28;20343;-67
2022/11/24 11:30:17;;;;;;;8.57;1.60;;;;;;;11.30;65.78;100177.09;4986338;28;20379;-65
2022/11/24 11:33:19;;;;;;;5.47;1.50;;;;;;;11.31;64.62;100181.53;4988190;28;20235;-64
2022/11/24 11:36:09;;;;;;;6.53;1.90;;;;;;;11.47;65.00;100171.91;4988001;28;20216;-64
2022/11/24 11:38:38;;;;;;;6.63;1.80;;;;;;;11.82;62.10;100164.16;4991183;28;20234;-65
2022/11/24 11:41:12;;;;;;;8.27;1.70;;;;;;;12.07;62.93;100170.47;4991676;28;20303;-66
2022/11/24 11:43:40;;;;;;;11.83;2.87;;;;;;;12.21;62.36;100179.38;4991011;28;20289;-66
2022/11/24 11:46:17;;;;;;;4.67;1.90;;;;;;;12.45;60.41;100176.81;4991930;28;20663;-66
2022/11/24 11:48:45;;;;;;;6.80;1.40;;;;;;;12.44;59.11;100177.69;4987708;28;20199;-67